KPIE

St Pete-Clearwater International Airport

Clearwater, Florida, USA
METAR KPIE 160153Z 21003KT 10SM FEW055 BKN070 18/17 A3009 RMK AO2 SLP190 T01780167
Observed Flight Rules
Dec-16 @ 01:53 UTC (34 minutes ago) Visual Flight Rules
Wind Visibility Clouds
210° at 3 knots 10 miles
  • Few at 5,500' AGL
  • Broken at 7,000' AGL
Temperatures Readings
Current 18°C / 64°F
Dewpoint 17°C / 63°F
Humidity 94%
Altimeter 30.09" Hg
Pressure 1019 hPa
Elevation 4
METAR KPIE 160153Z 21003KT 10SM FEW055 BKN070 18/17 A3009 RMK AO2 SLP190 T01780167
Observed Flight Rules
Dec-16 @ 01:53 UTC
(34 minutes ago)
VFR
Wind Visibility
210° at 3 knots 10 miles
Clouds
  • Few at 5,500' AGL
  • Broken at 7,000' AGL
Temperature Dewpoint
18°C / 64°F 17°C / 63°F
Humidity Altimeter Pressure
94% 30.09" Hg 1019 hPa